sensor_id;sensor_type;location;lat;lon;timestamp;P1;durP1;ratioP1;P2;durP2;ratioP2
61569;SDS011;47462;59.172;17.196;2023-01-09T00:02:12;252.75;;;14.93;;
61569;SDS011;47462;59.172;17.196;2023-01-09T00:04:38;51.67;;;9.37;;
61569;SDS011;47462;59.172;17.196;2023-01-09T00:07:03;200.43;;;14.87;;
61569;SDS011;47462;59.172;17.196;2023-01-09T00:09:29;170.93;;;10.98;;
61569;SDS011;47462;59.172;17.196;2023-01-09T00:11:54;285.03;;;14.07;;
61569;SDS011;47462;59.172;17.196;2023-01-09T00:14:20;90.37;;;9.80;;
61569;SDS011;47462;59.172;17.196;2023-01-09T00:16:46;228.23;;;14.98;;
61569;SDS011;47462;59.172;17.196;2023-01-09T00:19:12;301.70;;;15.83;;
61569;SDS011;47462;59.172;17.196;2023-01-09T00:21:38;355.83;;;16.08;;
61569;SDS011;47462;59.172;17.196;2023-01-09T00:24:04;198.70;;;12.00;;
61569;SDS011;47462;59.172;17.196;2023-01-09T00:28:55;203.70;;;14.73;;
61569;SDS011;47462;59.172;17.196;2023-01-09T00:31:20;105.45;;;12.18;;
61569;SDS011;47462;59.172;17.196;2023-01-09T00:33:57;25.50;;;10.07;;
61569;SDS011;47462;59.172;17.196;2023-01-09T00:36:24;168.02;;;14.32;;
61569;SDS011;47462;59.172;17.196;2023-01-09T00:38:50;118.13;;;13.27;;
61569;SDS011;47462;59.172;17.196;2023-01-09T00:41:17;215.13;;;15.95;;
61569;SDS011;47462;59.172;17.196;2023-01-09T00:43:46;206.73;;;14.75;;
61569;SDS011;47462;59.172;17.196;2023-01-09T00:46:15;262.70;;;15.10;;
61569;SDS011;47462;59.172;17.196;2023-01-09T00:48:44;252.52;;;16.15;;
61569;SDS011;47462;59.172;17.196;2023-01-09T00:51:12;180.10;;;18.35;;
61569;SDS011;47462;59.172;17.196;2023-01-09T00:53:42;97.40;;;21.73;;
61569;SDS011;47462;59.172;17.196;2023-01-09T00:56:10;98.00;;;21.02;;
61569;SDS011;47462;59.172;17.196;2023-01-09T00:58:39;91.40;;;13.30;;
61569;SDS011;47462;59.172;17.196;2023-01-09T01:01:04;160.15;;;14.98;;
61569;SDS011;47462;59.172;17.196;2023-01-09T01:03:30;140.65;;;14.15;;
61569;SDS011;47462;59.172;17.196;2023-01-09T01:05:55;190.73;;;13.23;;
61569;SDS011;47462;59.172;17.196;2023-01-09T01:08:39;329.55;;;17.58;;
61569;SDS011;47462;59.172;17.196;2023-01-09T01:11:05;239.85;;;16.45;;
61569;SDS011;47462;59.172;17.196;2023-01-09T01:13:34;232.20;;;14.65;;
61569;SDS011;47462;59.172;17.196;2023-01-09T01:16:02;301.00;;;16.30;;
61569;SDS011;47462;59.172;17.196;2023-01-09T01:18:29;263.65;;;16.60;;
61569;SDS011;47462;59.172;17.196;2023-01-09T01:20:55;127.80;;;14.18;;
61569;SDS011;47462;59.172;17.196;2023-01-09T01:23:20;382.30;;;20.10;;
61569;SDS011;47462;59.172;17.196;2023-01-09T01:25:45;293.05;;;13.98;;
61569;SDS011;47462;59.172;17.196;2023-01-09T01:28:11;248.30;;;12.77;;
61569;SDS011;47462;59.172;17.196;2023-01-09T01:30:40;128.23;;;18.90;;
61569;SDS011;47462;59.172;17.196;2023-01-09T01:33:06;158.02;;;15.05;;
61569;SDS011;47462;59.172;17.196;2023-01-09T01:35:33;161.85;;;15.80;;
61569;SDS011;47462;59.172;17.196;2023-01-09T01:37:58;110.03;;;14.82;;
61569;SDS011;47462;59.172;17.196;2023-01-09T01:40:24;91.32;;;13.48;;
61569;SDS011;47462;59.172;17.196;2023-01-09T01:42:50;262.38;;;17.00;;
61569;SDS011;47462;59.172;17.196;2023-01-09T01:45:18;248.52;;;17.75;;
61569;SDS011;47462;59.172;17.196;2023-01-09T01:47:50;388.73;;;20.02;;
61569;SDS011;47462;59.172;17.196;2023-01-09T01:53:11;338.30;;;16.13;;
61569;SDS011;47462;59.172;17.196;2023-01-09T01:56:23;205.50;;;14.65;;
61569;SDS011;47462;59.172;17.196;2023-01-09T01:58:32;250.02;;;26.33;;
61569;SDS011;47462;59.172;17.196;2023-01-09T02:01:00;162.13;;;27.83;;
61569;SDS011;47462;59.172;17.196;2023-01-09T02:03:26;96.30;;;19.75;;
61569;SDS011;47462;59.172;17.196;2023-01-09T02:05:53;105.38;;;13.05;;
61569;SDS011;47462;59.172;17.196;2023-01-09T02:08:18;184.60;;;12.97;;
61569;SDS011;47462;59.172;17.196;2023-01-09T02:10:45;205.50;;;12.07;;
61569;SDS011;47462;59.172;17.196;2023-01-09T02:13:11;221.25;;;12.82;;
61569;SDS011;47462;59.172;17.196;2023-01-09T02:16:00;348.27;;;14.45;;
61569;SDS011;47462;59.172;17.196;2023-01-09T02:18:49;158.27;;;11.68;;
61569;SDS011;47462;59.172;17.196;2023-01-09T02:21:46;57.55;;;10.23;;
61569;SDS011;47462;59.172;17.196;2023-01-09T02:27:24;118.95;;;10.15;;
61569;SDS011;47462;59.172;17.196;2023-01-09T02:33:29;442.02;;;17.40;;
61569;SDS011;47462;59.172;17.196;2023-01-09T02:41:30;120.47;;;11.07;;
61569;SDS011;47462;59.172;17.196;2023-01-09T02:44:11;137.68;;;10.93;;
61569;SDS011;47462;59.172;17.196;2023-01-09T02:46:40;404.50;;;17.15;;
61569;SDS011;47462;59.172;17.196;2023-01-09T02:49:06;182.93;;;11.93;;
61569;SDS011;47462;59.172;17.196;2023-01-09T02:52:16;243.35;;;13.45;;
61569;SDS011;47462;59.172;17.196;2023-01-09T02:57:48;211.80;;;11.90;;
61569;SDS011;47462;59.172;17.196;2023-01-09T03:00:29;153.20;;;11.23;;
61569;SDS011;47462;59.172;17.196;2023-01-09T03:03:19;241.10;;;13.40;;
61569;SDS011;47462;59.172;17.196;2023-01-09T03:05:54;170.40;;;11.98;;
61569;SDS011;47462;59.172;17.196;2023-01-09T03:08:29;304.27;;;15.00;;
61569;SDS011;47462;59.172;17.196;2023-01-09T03:11:01;243.70;;;12.63;;
61569;SDS011;47462;59.172;17.196;2023-01-09T03:13:34;296.42;;;14.98;;
61569;SDS011;47462;59.172;17.196;2023-01-09T03:16:06;201.77;;;10.13;;
61569;SDS011;47462;59.172;17.196;2023-01-09T03:18:33;298.08;;;13.50;;
61569;SDS011;47462;59.172;17.196;2023-01-09T03:21:03;236.38;;;11.75;;
61569;SDS011;47462;59.172;17.196;2023-01-09T03:23:51;279.98;;;12.50;;
61569;SDS011;47462;59.172;17.196;2023-01-09T03:26:19;219.35;;;10.93;;
61569;SDS011;47462;59.172;17.196;2023-01-09T03:28:45;190.65;;;10.30;;
61569;SDS011;47462;59.172;17.196;2023-01-09T03:31:10;211.10;;;10.82;;
61569;SDS011;47462;59.172;17.196;2023-01-09T03:33:36;97.57;;;8.45;;
61569;SDS011;47462;59.172;17.196;2023-01-09T03:36:01;256.97;;;13.20;;
61569;SDS011;47462;59.172;17.196;2023-01-09T03:38:27;208.52;;;12.18;;
61569;SDS011;47462;59.172;17.196;2023-01-09T03:40:53;324.93;;;13.73;;
61569;SDS011;47462;59.172;17.196;2023-01-09T03:43:18;438.83;;;19.23;;
61569;SDS011;47462;59.172;17.196;2023-01-09T03:45:43;104.07;;;10.13;;
61569;SDS011;47462;59.172;17.196;2023-01-09T03:48:09;129.97;;;10.17;;
61569;SDS011;47462;59.172;17.196;2023-01-09T03:50:34;76.70;;;8.17;;
61569;SDS011;47462;59.172;17.196;2023-01-09T03:53:00;257.00;;;12.63;;
61569;SDS011;47462;59.172;17.196;2023-01-09T03:55:25;113.35;;;7.95;;
61569;SDS011;47462;59.172;17.196;2023-01-09T03:57:51;400.83;;;15.57;;
61569;SDS011;47462;59.172;17.196;2023-01-09T04:00:17;392.38;;;16.90;;
61569;SDS011;47462;59.172;17.196;2023-01-09T04:02:44;73.15;;;8.13;;
61569;SDS011;47462;59.172;17.196;2023-01-09T04:05:09;146.70;;;10.30;;
61569;SDS011;47462;59.172;17.196;2023-01-09T04:07:35;197.48;;;10.68;;
61569;SDS011;47462;59.172;17.196;2023-01-09T04:10:00;269.77;;;12.55;;
61569;SDS011;47462;59.172;17.196;2023-01-09T04:12:26;321.23;;;12.63;;
61569;SDS011;47462;59.172;17.196;2023-01-09T04:14:51;313.33;;;13.77;;
61569;SDS011;47462;59.172;17.196;2023-01-09T04:17:17;140.32;;;8.07;;
61569;SDS011;47462;59.172;17.196;2023-01-09T04:19:42;29.97;;;5.80;;
61569;SDS011;47462;59.172;17.196;2023-01-09T04:22:07;60.00;;;6.57;;
61569;SDS011;47462;59.172;17.196;2023-01-09T04:24:33;30.87;;;5.53;;
61569;SDS011;47462;59.172;17.196;2023-01-09T04:26:58;30.80;;;5.50;;
61569;SDS011;47462;59.172;17.196;2023-01-09T04:29:24;264.63;;;12.95;;
61569;SDS011;47462;59.172;17.196;2023-01-09T04:31:49;60.40;;;5.90;;
61569;SDS011;47462;59.172;17.196;2023-01-09T04:34:15;50.37;;;6.17;;
61569;SDS011;47462;59.172;17.196;2023-01-09T04:36:40;42.37;;;5.80;;
61569;SDS011;47462;59.172;17.196;2023-01-09T04:39:07;353.83;;;15.38;;
61569;SDS011;47462;59.172;17.196;2023-01-09T04:41:32;190.23;;;10.35;;
61569;SDS011;47462;59.172;17.196;2023-01-09T04:44:13;320.20;;;13.02;;
61569;SDS011;47462;59.172;17.196;2023-01-09T04:46:39;104.93;;;8.00;;
61569;SDS011;47462;59.172;17.196;2023-01-09T04:49:04;84.50;;;6.30;;
61569;SDS011;47462;59.172;17.196;2023-01-09T04:51:30;93.15;;;6.53;;
61569;SDS011;47462;59.172;17.196;2023-01-09T04:53:56;72.97;;;6.15;;
61569;SDS011;47462;59.172;17.196;2023-01-09T04:56:21;273.77;;;11.37;;
61569;SDS011;47462;59.172;17.196;2023-01-09T04:58:46;66.75;;;7.22;;
61569;SDS011;47462;59.172;17.196;2023-01-09T05:01:12;66.97;;;5.40;;
61569;SDS011;47462;59.172;17.196;2023-01-09T05:03:37;51.63;;;12.80;;
61569;SDS011;47462;59.172;17.196;2023-01-09T05:06:02;150.97;;;15.90;;
61569;SDS011;47462;59.172;17.196;2023-01-09T05:08:28;46.83;;;13.88;;
61569;SDS011;47462;59.172;17.196;2023-01-09T05:10:53;88.37;;;14.33;;
61569;SDS011;47462;59.172;17.196;2023-01-09T05:13:19;70.73;;;9.00;;
61569;SDS011;47462;59.172;17.196;2023-01-09T05:15:44;76.87;;;5.27;;
61569;SDS011;47462;59.172;17.196;2023-01-09T05:18:09;79.03;;;4.90;;
61569;SDS011;47462;59.172;17.196;2023-01-09T05:20:35;26.50;;;4.43;;
61569;SDS011;47462;59.172;17.196;2023-01-09T05:23:01;17.42;;;5.47;;
61569;SDS011;47462;59.172;17.196;2023-01-09T05:25:27;76.23;;;9.33;;
61569;SDS011;47462;59.172;17.196;2023-01-09T05:27:52;26.60;;;6.85;;
61569;SDS011;47462;59.172;17.196;2023-01-09T05:30:18;17.27;;;9.20;;
61569;SDS011;47462;59.172;17.196;2023-01-09T05:35:09;52.97;;;9.38;;
61569;SDS011;47462;59.172;17.196;2023-01-09T05:37:35;44.33;;;8.73;;
61569;SDS011;47462;59.172;17.196;2023-01-09T05:40:00;32.80;;;7.20;;
61569;SDS011;47462;59.172;17.196;2023-01-09T05:42:25;64.53;;;8.13;;
61569;SDS011;47462;59.172;17.196;2023-01-09T05:44:51;18.88;;;6.90;;
61569;SDS011;47462;59.172;17.196;2023-01-09T05:47:16;34.30;;;6.50;;
61569;SDS011;47462;59.172;17.196;2023-01-09T05:49:42;47.10;;;7.53;;
61569;SDS011;47462;59.172;17.196;2023-01-09T05:52:07;51.47;;;8.30;;
61569;SDS011;47462;59.172;17.196;2023-01-09T05:54:32;45.97;;;7.87;;
61569;SDS011;47462;59.172;17.196;2023-01-09T05:56:58;62.75;;;7.30;;
61569;SDS011;47462;59.172;17.196;2023-01-09T05:59:24;88.43;;;6.60;;
61569;SDS011;47462;59.172;17.196;2023-01-09T06:01:49;20.40;;;4.73;;
61569;SDS011;47462;59.172;17.196;2023-01-09T06:04:14;63.87;;;5.03;;
61569;SDS011;47462;59.172;17.196;2023-01-09T06:06:40;36.42;;;4.75;;
61569;SDS011;47462;59.172;17.196;2023-01-09T06:09:05;71.63;;;5.23;;
61569;SDS011;47462;59.172;17.196;2023-01-09T06:11:31;33.50;;;4.57;;
61569;SDS011;47462;59.172;17.196;2023-01-09T06:14:02;40.00;;;4.85;;
61569;SDS011;47462;59.172;17.196;2023-01-09T06:16:28;86.40;;;4.63;;
61569;SDS011;47462;59.172;17.196;2023-01-09T06:18:53;66.77;;;4.40;;
61569;SDS011;47462;59.172;17.196;2023-01-09T06:21:19;62.92;;;3.92;;
61569;SDS011;47462;59.172;17.196;2023-01-09T06:23:44;39.77;;;3.73;;
61569;SDS011;47462;59.172;17.196;2023-01-09T06:26:10;32.47;;;4.77;;
61569;SDS011;47462;59.172;17.196;2023-01-09T06:28:35;62.40;;;4.27;;
61569;SDS011;47462;59.172;17.196;2023-01-09T06:31:00;20.90;;;3.23;;
61569;SDS011;47462;59.172;17.196;2023-01-09T06:33:26;10.97;;;2.90;;
61569;SDS011;47462;59.172;17.196;2023-01-09T06:35:51;30.00;;;4.13;;
61569;SDS011;47462;59.172;17.196;2023-01-09T06:38:17;18.63;;;3.30;;
61569;SDS011;47462;59.172;17.196;2023-01-09T06:40:43;26.05;;;3.53;;
61569;SDS011;47462;59.172;17.196;2023-01-09T06:43:09;21.08;;;3.22;;
61569;SDS011;47462;59.172;17.196;2023-01-09T06:45:34;16.63;;;3.47;;
61569;SDS011;47462;59.172;17.196;2023-01-09T06:48:00;26.85;;;3.95;;
61569;SDS011;47462;59.172;17.196;2023-01-09T06:50:25;96.70;;;6.37;;
61569;SDS011;47462;59.172;17.196;2023-01-09T06:52:51;82.68;;;6.03;;
61569;SDS011;47462;59.172;17.196;2023-01-09T06:55:16;238.50;;;9.50;;
61569;SDS011;47462;59.172;17.196;2023-01-09T06:57:42;114.13;;;5.28;;
61569;SDS011;47462;59.172;17.196;2023-01-09T07:00:08;159.02;;;7.78;;
61569;SDS011;47462;59.172;17.196;2023-01-09T07:02:34;53.58;;;4.85;;
61569;SDS011;47462;59.172;17.196;2023-01-09T07:04:59;146.50;;;7.43;;
61569;SDS011;47462;59.172;17.196;2023-01-09T07:07:24;144.07;;;6.78;;
61569;SDS011;47462;59.172;17.196;2023-01-09T07:09:50;52.13;;;5.40;;
61569;SDS011;47462;59.172;17.196;2023-01-09T07:12:15;51.63;;;5.87;;
61569;SDS011;47462;59.172;17.196;2023-01-09T07:14:41;193.00;;;9.80;;
61569;SDS011;47462;59.172;17.196;2023-01-09T07:17:06;121.13;;;10.30;;
61569;SDS011;47462;59.172;17.196;2023-01-09T07:19:32;115.55;;;9.18;;
61569;SDS011;47462;59.172;17.196;2023-01-09T07:21:58;24.90;;;9.33;;
61569;SDS011;47462;59.172;17.196;2023-01-09T07:24:23;25.55;;;9.32;;
61569;SDS011;47462;59.172;17.196;2023-01-09T07:26:49;243.60;;;15.50;;
61569;SDS011;47462;59.172;17.196;2023-01-09T07:29:14;20.67;;;8.88;;
61569;SDS011;47462;59.172;17.196;2023-01-09T07:31:40;25.93;;;9.80;;
61569;SDS011;47462;59.172;17.196;2023-01-09T07:34:05;97.23;;;16.10;;
61569;SDS011;47462;59.172;17.196;2023-01-09T07:36:33;27.52;;;7.50;;
61569;SDS011;47462;59.172;17.196;2023-01-09T07:38:59;32.60;;;6.50;;
61569;SDS011;47462;59.172;17.196;2023-01-09T07:41:24;16.83;;;6.10;;
61569;SDS011;47462;59.172;17.196;2023-01-09T07:43:50;39.30;;;6.38;;
61569;SDS011;47462;59.172;17.196;2023-01-09T07:46:15;84.00;;;6.70;;
61569;SDS011;47462;59.172;17.196;2023-01-09T07:48:40;33.43;;;5.30;;
61569;SDS011;47462;59.172;17.196;2023-01-09T07:51:06;69.18;;;5.93;;
61569;SDS011;47462;59.172;17.196;2023-01-09T07:53:31;39.90;;;5.27;;
61569;SDS011;47462;59.172;17.196;2023-01-09T07:55:57;29.47;;;4.70;;
61569;SDS011;47462;59.172;17.196;2023-01-09T07:58:22;12.80;;;4.33;;
61569;SDS011;47462;59.172;17.196;2023-01-09T08:00:48;22.83;;;4.43;;
61569;SDS011;47462;59.172;17.196;2023-01-09T08:03:14;18.17;;;5.20;;
61569;SDS011;47462;59.172;17.196;2023-01-09T08:05:40;28.50;;;4.73;;
61569;SDS011;47462;59.172;17.196;2023-01-09T08:08:05;25.33;;;4.50;;
61569;SDS011;47462;59.172;17.196;2023-01-09T08:10:31;66.28;;;5.10;;
61569;SDS011;47462;59.172;17.196;2023-01-09T08:12:56;99.75;;;8.07;;
61569;SDS011;47462;59.172;17.196;2023-01-09T08:15:22;181.25;;;38.78;;
61569;SDS011;47462;59.172;17.196;2023-01-09T08:17:47;195.97;;;19.03;;
61569;SDS011;47462;59.172;17.196;2023-01-09T08:20:14;127.60;;;8.45;;
61569;SDS011;47462;59.172;17.196;2023-01-09T08:22:41;86.63;;;4.70;;
61569;SDS011;47462;59.172;17.196;2023-01-09T08:25:07;70.20;;;5.38;;
61569;SDS011;47462;59.172;17.196;2023-01-09T08:27:33;50.20;;;5.93;;
61569;SDS011;47462;59.172;17.196;2023-01-09T08:29:59;79.87;;;4.97;;
61569;SDS011;47462;59.172;17.196;2023-01-09T08:32:24;71.30;;;4.40;;
61569;SDS011;47462;59.172;17.196;2023-01-09T08:34:50;28.92;;;3.75;;
61569;SDS011;47462;59.172;17.196;2023-01-09T08:37:15;24.90;;;3.40;;
61569;SDS011;47462;59.172;17.196;2023-01-09T08:39:41;24.50;;;4.43;;
61569;SDS011;47462;59.172;17.196;2023-01-09T08:42:06;63.27;;;4.50;;
61569;SDS011;47462;59.172;17.196;2023-01-09T08:44:50;39.00;;;4.07;;
61569;SDS011;47462;59.172;17.196;2023-01-09T08:47:34;54.38;;;4.88;;
61569;SDS011;47462;59.172;17.196;2023-01-09T08:50:00;70.80;;;5.20;;
61569;SDS011;47462;59.172;17.196;2023-01-09T08:52:26;43.83;;;4.38;;
61569;SDS011;47462;59.172;17.196;2023-01-09T08:54:54;53.55;;;5.10;;
61569;SDS011;47462;59.172;17.196;2023-01-09T08:57:20;33.13;;;4.63;;
61569;SDS011;47462;59.172;17.196;2023-01-09T08:59:46;117.57;;;6.88;;
61569;SDS011;47462;59.172;17.196;2023-01-09T09:02:11;65.47;;;5.25;;
61569;SDS011;47462;59.172;17.196;2023-01-09T09:04:36;78.83;;;5.37;;
61569;SDS011;47462;59.172;17.196;2023-01-09T09:07:02;67.30;;;5.30;;
61569;SDS011;47462;59.172;17.196;2023-01-09T09:09:27;54.83;;;4.03;;
61569;SDS011;47462;59.172;17.196;2023-01-09T09:11:52;128.60;;;5.80;;
61569;SDS011;47462;59.172;17.196;2023-01-09T09:14:18;166.13;;;6.43;;
61569;SDS011;47462;59.172;17.196;2023-01-09T09:17:02;43.97;;;3.80;;
61569;SDS011;47462;59.172;17.196;2023-01-09T09:19:28;63.95;;;3.75;;
61569;SDS011;47462;59.172;17.196;2023-01-09T09:21:53;23.77;;;4.07;;
61569;SDS011;47462;59.172;17.196;2023-01-09T09:24:19;70.03;;;8.30;;
61569;SDS011;47462;59.172;17.196;2023-01-09T09:26:44;84.20;;;14.07;;
61569;SDS011;47462;59.172;17.196;2023-01-09T09:29:10;36.20;;;9.33;;
61569;SDS011;47462;59.172;17.196;2023-01-09T09:31:36;40.17;;;10.80;;
61569;SDS011;47462;59.172;17.196;2023-01-09T09:34:03;23.35;;;7.43;;
61569;SDS011;47462;59.172;17.196;2023-01-09T09:36:29;45.28;;;7.57;;
61569;SDS011;47462;59.172;17.196;2023-01-09T09:38:54;53.07;;;9.43;;
61569;SDS011;47462;59.172;17.196;2023-01-09T09:41:24;15.15;;;7.85;;
61569;SDS011;47462;59.172;17.196;2023-01-09T09:47:16;7.10;;;4.40;;
61569;SDS011;47462;59.172;17.196;2023-01-09T09:55:26;54.88;;;5.25;;
61569;SDS011;47462;59.172;17.196;2023-01-09T09:57:57;59.90;;;5.30;;
61569;SDS011;47462;59.172;17.196;2023-01-09T10:00:26;52.67;;;5.18;;
61569;SDS011;47462;59.172;17.196;2023-01-09T10:03:00;50.42;;;4.97;;
61569;SDS011;47462;59.172;17.196;2023-01-09T10:05:46;43.22;;;5.95;;
61569;SDS011;47462;59.172;17.196;2023-01-09T10:08:18;27.67;;;4.70;;
61569;SDS011;47462;59.172;17.196;2023-01-09T10:10:52;13.02;;;4.68;;
61569;SDS011;47462;59.172;17.196;2023-01-09T10:13:21;7.25;;;4.32;;
61569;SDS011;47462;59.172;17.196;2023-01-09T10:16:21;11.50;;;5.25;;
61569;SDS011;47462;59.172;17.196;2023-01-09T10:19:09;69.15;;;6.50;;
61569;SDS011;47462;59.172;17.196;2023-01-09T10:27:40;12.18;;;3.90;;
61569;SDS011;47462;59.172;17.196;2023-01-09T10:33:10;32.15;;;5.78;;
61569;SDS011;47462;59.172;17.196;2023-01-09T10:38:28;50.03;;;6.15;;
61569;SDS011;47462;59.172;17.196;2023-01-09T10:41:04;146.25;;;8.02;;
61569;SDS011;47462;59.172;17.196;2023-01-09T10:46:27;9.88;;;4.90;;
61569;SDS011;47462;59.172;17.196;2023-01-09T10:48:58;7.78;;;4.10;;
61569;SDS011;47462;59.172;17.196;2023-01-09T10:54:32;20.52;;;5.80;;
61569;SDS011;47462;59.172;17.196;2023-01-09T10:57:16;9.45;;;5.38;;
61569;SDS011;47462;59.172;17.196;2023-01-09T10:59:51;102.32;;;9.50;;
61569;SDS011;47462;59.172;17.196;2023-01-09T11:02:26;19.43;;;6.20;;
61569;SDS011;47462;59.172;17.196;2023-01-09T11:04:56;42.60;;;6.45;;
61569;SDS011;47462;59.172;17.196;2023-01-09T11:07:23;26.90;;;5.67;;
61569;SDS011;47462;59.172;17.196;2023-01-09T11:10:01;8.20;;;4.80;;
61569;SDS011;47462;59.172;17.196;2023-01-09T11:12:30;6.25;;;4.43;;
61569;SDS011;47462;59.172;17.196;2023-01-09T11:15:43;8.60;;;4.03;;
61569;SDS011;47462;59.172;17.196;2023-01-09T11:17:52;5.70;;;4.15;;
61569;SDS011;47462;59.172;17.196;2023-01-09T11:22:50;14.10;;;4.60;;
61569;SDS011;47462;59.172;17.196;2023-01-09T11:25:20;6.25;;;4.50;;
61569;SDS011;47462;59.172;17.196;2023-01-09T11:30:29;8.98;;;4.43;;
61569;SDS011;47462;59.172;17.196;2023-01-09T11:32:56;12.40;;;4.53;;
61569;SDS011;47462;59.172;17.196;2023-01-09T11:35:24;145.25;;;9.98;;
61569;SDS011;47462;59.172;17.196;2023-01-09T11:37:57;7.78;;;5.05;;
61569;SDS011;47462;59.172;17.196;2023-01-09T11:40:27;18.48;;;6.00;;
61569;SDS011;47462;59.172;17.196;2023-01-09T11:43:10;34.53;;;6.20;;
61569;SDS011;47462;59.172;17.196;2023-01-09T11:45:51;30.85;;;5.80;;
61569;SDS011;47462;59.172;17.196;2023-01-09T11:50:56;149.75;;;10.18;;
61569;SDS011;47462;59.172;17.196;2023-01-09T11:53:23;218.30;;;12.68;;
61569;SDS011;47462;59.172;17.196;2023-01-09T11:55:53;26.77;;;6.18;;
61569;SDS011;47462;59.172;17.196;2023-01-09T11:58:21;66.32;;;7.43;;
61569;SDS011;47462;59.172;17.196;2023-01-09T12:06:18;133.13;;;8.00;;
61569;SDS011;47462;59.172;17.196;2023-01-09T12:08:57;248.80;;;11.65;;
61569;SDS011;47462;59.172;17.196;2023-01-09T12:11:30;189.20;;;10.55;;
61569;SDS011;47462;59.172;17.196;2023-01-09T12:14:18;113.55;;;8.05;;
61569;SDS011;47462;59.172;17.196;2023-01-09T12:20:04;414.25;;;19.25;;
61569;SDS011;47462;59.172;17.196;2023-01-09T12:28:30;86.63;;;6.45;;
61569;SDS011;47462;59.172;17.196;2023-01-09T12:41:46;99.22;;;7.75;;
61569;SDS011;47462;59.172;17.196;2023-01-09T12:47:24;103.80;;;7.57;;
61569;SDS011;47462;59.172;17.196;2023-01-09T12:52:41;126.40;;;7.72;;
61569;SDS011;47462;59.172;17.196;2023-01-09T12:55:17;264.35;;;12.38;;
61569;SDS011;47462;59.172;17.196;2023-01-09T12:57:50;53.93;;;6.23;;
61569;SDS011;47462;59.172;17.196;2023-01-09T13:00:32;113.20;;;8.18;;
61569;SDS011;47462;59.172;17.196;2023-01-09T13:03:09;101.00;;;8.82;;
61569;SDS011;47462;59.172;17.196;2023-01-09T13:05:43;177.77;;;10.60;;
61569;SDS011;47462;59.172;17.196;2023-01-09T13:08:13;27.42;;;7.53;;
61569;SDS011;47462;59.172;17.196;2023-01-09T13:10:52;11.05;;;7.03;;
61569;SDS011;47462;59.172;17.196;2023-01-09T13:13:28;118.00;;;10.75;;
61569;SDS011;47462;59.172;17.196;2023-01-09T13:16:04;155.63;;;11.50;;
61569;SDS011;47462;59.172;17.196;2023-01-09T13:18:46;140.20;;;12.37;;
61569;SDS011;47462;59.172;17.196;2023-01-09T13:21:16;80.75;;;10.10;;
61569;SDS011;47462;59.172;17.196;2023-01-09T13:26:43;224.02;;;15.55;;
61569;SDS011;47462;59.172;17.196;2023-01-09T13:29:13;41.38;;;10.77;;
61569;SDS011;47462;59.172;17.196;2023-01-09T13:34:22;185.02;;;13.85;;
61569;SDS011;47462;59.172;17.196;2023-01-09T13:36:51;10.70;;;7.53;;
61569;SDS011;47462;59.172;17.196;2023-01-09T13:39:33;60.40;;;9.95;;
61569;SDS011;47462;59.172;17.196;2023-01-09T13:42:00;11.07;;;7.57;;
61569;SDS011;47462;59.172;17.196;2023-01-09T13:44:46;17.85;;;8.18;;
61569;SDS011;47462;59.172;17.196;2023-01-09T13:47:34;15.23;;;9.07;;
61569;SDS011;47462;59.172;17.196;2023-01-09T13:50:00;27.17;;;8.30;;
61569;SDS011;47462;59.172;17.196;2023-01-09T13:52:36;39.10;;;9.60;;
61569;SDS011;47462;59.172;17.196;2023-01-09T14:07:42;291.48;;;17.40;;
61569;SDS011;47462;59.172;17.196;2023-01-09T14:10:21;105.70;;;13.38;;
61569;SDS011;47462;59.172;17.196;2023-01-09T14:13:14;157.25;;;16.20;;
61569;SDS011;47462;59.172;17.196;2023-01-09T14:15:44;129.73;;;14.20;;
61569;SDS011;47462;59.172;17.196;2023-01-09T14:20:46;346.80;;;23.23;;
61569;SDS011;47462;59.172;17.196;2023-01-09T14:23:22;49.67;;;12.35;;
61569;SDS011;47462;59.172;17.196;2023-01-09T14:25:48;97.68;;;15.75;;
61569;SDS011;47462;59.172;17.196;2023-01-09T14:28:19;18.67;;;12.10;;
61569;SDS011;47462;59.172;17.196;2023-01-09T14:44:05;65.90;;;13.10;;
61569;SDS011;47462;59.172;17.196;2023-01-09T14:46:42;18.42;;;9.35;;
61569;SDS011;47462;59.172;17.196;2023-01-09T14:51:37;14.75;;;8.38;;
61569;SDS011;47462;59.172;17.196;2023-01-09T14:54:13;19.92;;;9.38;;
61569;SDS011;47462;59.172;17.196;2023-01-09T14:56:48;15.20;;;8.38;;
61569;SDS011;47462;59.172;17.196;2023-01-09T14:59:13;13.63;;;8.07;;
61569;SDS011;47462;59.172;17.196;2023-01-09T15:01:42;15.70;;;7.78;;
61569;SDS011;47462;59.172;17.196;2023-01-09T15:04:18;16.35;;;8.10;;
61569;SDS011;47462;59.172;17.196;2023-01-09T15:06:47;13.45;;;7.68;;
61569;SDS011;47462;59.172;17.196;2023-01-09T15:11:54;31.90;;;8.05;;
61569;SDS011;47462;59.172;17.196;2023-01-09T15:14:30;14.07;;;8.05;;
61569;SDS011;47462;59.172;17.196;2023-01-09T15:16:57;16.15;;;7.90;;
61569;SDS011;47462;59.172;17.196;2023-01-09T15:19:24;12.55;;;7.97;;
61569;SDS011;47462;59.172;17.196;2023-01-09T15:21:56;10.90;;;7.53;;
61569;SDS011;47462;59.172;17.196;2023-01-09T15:24:27;11.00;;;7.15;;
61569;SDS011;47462;59.172;17.196;2023-01-09T15:26:58;14.02;;;7.90;;
61569;SDS011;47462;59.172;17.196;2023-01-09T15:29:37;15.02;;;9.02;;
61569;SDS011;47462;59.172;17.196;2023-01-09T15:32:03;18.33;;;10.47;;
61569;SDS011;47462;59.172;17.196;2023-01-09T15:34:41;20.25;;;11.40;;
61569;SDS011;47462;59.172;17.196;2023-01-09T15:37:22;30.70;;;13.20;;
61569;SDS011;47462;59.172;17.196;2023-01-09T15:40:00;26.85;;;13.60;;
61569;SDS011;47462;59.172;17.196;2023-01-09T15:42:27;27.95;;;13.95;;
61569;SDS011;47462;59.172;17.196;2023-01-09T15:45:22;23.20;;;13.73;;
61569;SDS011;47462;59.172;17.196;2023-01-09T15:47:51;28.58;;;16.33;;
61569;SDS011;47462;59.172;17.196;2023-01-09T15:50:21;33.78;;;16.55;;
61569;SDS011;47462;59.172;17.196;2023-01-09T15:52:52;32.38;;;17.30;;
61569;SDS011;47462;59.172;17.196;2023-01-09T15:57:58;62.22;;;19.77;;
61569;SDS011;47462;59.172;17.196;2023-01-09T16:02:53;38.33;;;18.25;;
61569;SDS011;47462;59.172;17.196;2023-01-09T16:05:43;32.33;;;17.85;;
61569;SDS011;47462;59.172;17.196;2023-01-09T16:08:20;50.20;;;19.27;;
61569;SDS011;47462;59.172;17.196;2023-01-09T16:10:52;44.78;;;20.13;;
61569;SDS011;47462;59.172;17.196;2023-01-09T16:13:20;45.72;;;19.27;;
61569;SDS011;47462;59.172;17.196;2023-01-09T16:15:48;44.75;;;19.35;;
61569;SDS011;47462;59.172;17.196;2023-01-09T16:20:43;31.70;;;16.58;;
61569;SDS011;47462;59.172;17.196;2023-01-09T16:25:45;30.97;;;14.80;;
61569;SDS011;47462;59.172;17.196;2023-01-09T16:30:48;30.08;;;14.48;;
61569;SDS011;47462;59.172;17.196;2023-01-09T16:33:19;27.23;;;13.38;;
61569;SDS011;47462;59.172;17.196;2023-01-09T16:35:48;25.00;;;13.50;;
61569;SDS011;47462;59.172;17.196;2023-01-09T16:38:14;28.90;;;13.30;;
61569;SDS011;47462;59.172;17.196;2023-01-09T16:40:48;23.55;;;13.07;;
61569;SDS011;47462;59.172;17.196;2023-01-09T16:43:41;26.80;;;13.27;;
61569;SDS011;47462;59.172;17.196;2023-01-09T16:46:07;25.30;;;12.50;;